Portada
METAR-TAF:

METAR-TAF

Aeroports :

Nakhon Ratchasima, Tailàndia

latitud: 14-56-58N, longitud: 102-18-45E, altitud: 233 m

Observació

L'informe es va fer fa 1 hora i 1 minuts, a les 06:00 UTC
Vent 4 kt amb direcció variable
Temperatura 36°C
Humitat 42%
Pressió 1011 hPa
Visibilitat 10 km o més
Escasses núvols a una alçada de 3000 ft

METAR: VTUQ 080600Z VRB04KT 9999 FEW030 36/21 Q1011 NOSIG

Hora: 14:01 (07:01 UTC)

Pronòstic

L'informe es va fer fa 2 hores i 1 minuts, a les 05:00 UTC
Pronòstic vàlid del 08 a les 06 UTC al 09 a les 06 UTC
Vent 5 kt del Sud
Visibilitat: 9000 m
Escasses núvols a una alçada de 3000 ft
Evolucionant progressivament
l' 08 a les 21 UTC al 08 a les 23 UTC
Visibilitat: 5000 m
boirina
Evolucionant progressivament
l' 09 a les 01 UTC al 09 a les 03 UTC
Visibilitat: 9000 m

TAF: VTUQ 080500Z 0806/0906 18005KT 9000 FEW030 BECMG 0821/0823 5000 BR BECMG 0901/0903 9000 NSW

Observacions i pronòstics meteorològics de més de 4000 aeroports (METAR i TAF).

Les estacions disponibles són els punts grocs i vermells al mapa.

Posi el ratolí al punt desitjat per veure el nom de l'estació.

Feu clic per veure les observacions i els pronòstics meteorològics.

Per canviar el mapa: feu clic els botons verds amb una creu de color negre per apropar; al botó verd amb un guió per allunyar la imatge; o en les fletxes verdes per a mapes adjacents.


METAR-TAF: